Main page
METAR-TAF:

METAR-TAF

Airports :

Tak Airport

Tak, Thailand

latitude: 16-53N, longitude: 099-09E, elevation: 121 m

METAR: missing

Time: 17:08 (10:08 UTC)

Forecast

The report was made 5 hours and 8 minutes ago, at 05:00 UTC
Forecast valid from 24 at 06 UTC to 25 at 06 UTC
Wind 5 kt from the Southeast
Visibility: 6000 m

TAF: VTPT 240500Z 2406/2506 14005KT 6000 NSC

Weather observations and forecasts of more than 4000 airports (METAR and TAF reports).

The available stations are represented by yellow and red dots on the map.

Hover mouse over dot to see the name of the station.

Then click to see weather observations and forecasts.

To change the map : click on the green buttons with a black cross to zoom in, on the green button with a dash to zoom out, or on the green arrows for adjacent maps.


METAR-TAF: